Terminal Aerodrome Forecast
Issued by NWS Dodge City, KS

Home | Current Version | Previous Version | Graphics & Text | Print | Product List | Glossary On
Versions: 1 2 3 4 5 6 7 8 9 10 11 12 13 14 15 16 17 18 19
000
FTUS43 KDDC 181358 AAB
TAFDDC
TAF AMD
KDDC 181358Z 1814/1912 21006KT 5SM BR SKC
     FM181500 22010G15KT P6SM SKC
     FM190000 20007KT P6SM SKC
     FM190600 27007KT P6SM SKC
     FM190900 34008KT P6SM SKC=

USA.gov is the U.S. government's official web portal to all federal, state and local government web resources and services.